sensor_id;sensor_type;location;lat;lon;timestamp;P1;durP1;ratioP1;P2;durP2;ratioP2
29380;SDS011;16364;52.490;13.326;2023-11-21T00:00:30;4.50;;;4.10;;
29380;SDS011;16364;52.490;13.326;2023-11-21T00:02:55;4.43;;;3.23;;
29380;SDS011;16364;52.490;13.326;2023-11-21T00:05:21;6.07;;;5.47;;
29380;SDS011;16364;52.490;13.326;2023-11-21T00:07:48;5.83;;;5.20;;
29380;SDS011;16364;52.490;13.326;2023-11-21T00:10:13;11.70;;;7.70;;
29380;SDS011;16364;52.490;13.326;2023-11-21T00:12:39;13.17;;;8.40;;
29380;SDS011;16364;52.490;13.326;2023-11-21T00:15:07;12.77;;;8.77;;
29380;SDS011;16364;52.490;13.326;2023-11-21T00:17:35;16.13;;;10.13;;
29380;SDS011;16364;52.490;13.326;2023-11-21T00:20:01;15.80;;;9.43;;
29380;SDS011;16364;52.490;13.326;2023-11-21T00:22:26;17.70;;;10.90;;
29380;SDS011;16364;52.490;13.326;2023-11-21T00:24:51;17.73;;;10.07;;
29380;SDS011;16364;52.490;13.326;2023-11-21T00:27:17;21.23;;;11.30;;
29380;SDS011;16364;52.490;13.326;2023-11-21T00:29:42;26.13;;;11.90;;
29380;SDS011;16364;52.490;13.326;2023-11-21T00:32:07;20.63;;;10.73;;
29380;SDS011;16364;52.490;13.326;2023-11-21T00:34:34;22.47;;;12.20;;
29380;SDS011;16364;52.490;13.326;2023-11-21T00:36:59;26.30;;;12.53;;
29380;SDS011;16364;52.490;13.326;2023-11-21T00:39:24;22.50;;;12.83;;
29380;SDS011;16364;52.490;13.326;2023-11-21T00:41:51;20.43;;;12.33;;
29380;SDS011;16364;52.490;13.326;2023-11-21T00:44:17;28.90;;;14.23;;
29380;SDS011;16364;52.490;13.326;2023-11-21T00:46:42;26.77;;;12.87;;
29380;SDS011;16364;52.490;13.326;2023-11-21T00:49:07;24.90;;;12.87;;
29380;SDS011;16364;52.490;13.326;2023-11-21T00:51:32;39.27;;;16.17;;
29380;SDS011;16364;52.490;13.326;2023-11-21T00:53:58;27.40;;;15.57;;
29380;SDS011;16364;52.490;13.326;2023-11-21T00:56:23;27.93;;;14.60;;
29380;SDS011;16364;52.490;13.326;2023-11-21T00:58:49;32.97;;;16.30;;
29380;SDS011;16364;52.490;13.326;2023-11-21T01:01:17;38.50;;;16.80;;
29380;SDS011;16364;52.490;13.326;2023-11-21T01:03:42;40.37;;;18.87;;
29380;SDS011;16364;52.490;13.326;2023-11-21T01:06:08;39.57;;;17.37;;
29380;SDS011;16364;52.490;13.326;2023-11-21T01:08:33;37.03;;;15.80;;
29380;SDS011;16364;52.490;13.326;2023-11-21T01:10:59;48.27;;;18.93;;
29380;SDS011;16364;52.490;13.326;2023-11-21T01:13:24;50.27;;;19.53;;
29380;SDS011;16364;52.490;13.326;2023-11-21T01:15:54;55.70;;;21.50;;
29380;SDS011;16364;52.490;13.326;2023-11-21T01:18:19;65.73;;;23.70;;
29380;SDS011;16364;52.490;13.326;2023-11-21T01:20:45;56.67;;;21.27;;
29380;SDS011;16364;52.490;13.326;2023-11-21T01:23:12;62.00;;;22.40;;
29380;SDS011;16364;52.490;13.326;2023-11-21T01:25:37;52.60;;;20.50;;
29380;SDS011;16364;52.490;13.326;2023-11-21T01:28:02;45.30;;;21.13;;
29380;SDS011;16364;52.490;13.326;2023-11-21T01:30:27;57.70;;;21.37;;
29380;SDS011;16364;52.490;13.326;2023-11-21T01:32:52;41.37;;;20.57;;
29380;SDS011;16364;52.490;13.326;2023-11-21T01:35:18;54.30;;;21.67;;
29380;SDS011;16364;52.490;13.326;2023-11-21T01:37:43;62.80;;;22.70;;
29380;SDS011;16364;52.490;13.326;2023-11-21T01:40:08;54.33;;;21.70;;
29380;SDS011;16364;52.490;13.326;2023-11-21T01:42:38;55.77;;;18.50;;
29380;SDS011;16364;52.490;13.326;2023-11-21T01:45:04;48.07;;;19.77;;
29380;SDS011;16364;52.490;13.326;2023-11-21T01:47:30;49.73;;;19.80;;
29380;SDS011;16364;52.490;13.326;2023-11-21T01:49:56;55.07;;;22.70;;
29380;SDS011;16364;52.490;13.326;2023-11-21T01:52:21;55.53;;;22.03;;
29380;SDS011;16364;52.490;13.326;2023-11-21T01:54:46;51.77;;;20.50;;
29380;SDS011;16364;52.490;13.326;2023-11-21T01:57:12;68.67;;;21.20;;
29380;SDS011;16364;52.490;13.326;2023-11-21T01:59:38;56.73;;;21.27;;
29380;SDS011;16364;52.490;13.326;2023-11-21T02:02:06;69.07;;;21.17;;
29380;SDS011;16364;52.490;13.326;2023-11-21T02:04:35;60.67;;;22.50;;
29380;SDS011;16364;52.490;13.326;2023-11-21T02:07:02;55.40;;;20.30;;
29380;SDS011;16364;52.490;13.326;2023-11-21T02:09:30;55.10;;;21.40;;
29380;SDS011;16364;52.490;13.326;2023-11-21T02:11:56;59.37;;;20.13;;
29380;SDS011;16364;52.490;13.326;2023-11-21T02:14:23;61.10;;;20.60;;
29380;SDS011;16364;52.490;13.326;2023-11-21T02:16:50;49.83;;;17.87;;
29380;SDS011;16364;52.490;13.326;2023-11-21T02:19:17;46.27;;;17.93;;
29380;SDS011;16364;52.490;13.326;2023-11-21T02:21:44;42.67;;;18.10;;
29380;SDS011;16364;52.490;13.326;2023-11-21T02:24:10;58.20;;;17.60;;
29380;SDS011;16364;52.490;13.326;2023-11-21T02:26:35;37.33;;;14.87;;
29380;SDS011;16364;52.490;13.326;2023-11-21T02:29:00;37.10;;;13.53;;
29380;SDS011;16364;52.490;13.326;2023-11-21T02:31:26;38.00;;;14.00;;
29380;SDS011;16364;52.490;13.326;2023-11-21T02:33:52;28.50;;;12.60;;
29380;SDS011;16364;52.490;13.326;2023-11-21T02:36:17;23.97;;;11.00;;
29380;SDS011;16364;52.490;13.326;2023-11-21T02:38:43;20.43;;;10.33;;
29380;SDS011;16364;52.490;13.326;2023-11-21T02:41:08;27.83;;;10.27;;
29380;SDS011;16364;52.490;13.326;2023-11-21T02:43:33;16.57;;;9.43;;
29380;SDS011;16364;52.490;13.326;2023-11-21T02:45:59;15.23;;;8.57;;
29380;SDS011;16364;52.490;13.326;2023-11-21T02:48:24;23.27;;;10.10;;
29380;SDS011;16364;52.490;13.326;2023-11-21T02:50:50;18.40;;;8.53;;
29380;SDS011;16364;52.490;13.326;2023-11-21T02:53:18;20.27;;;9.53;;
29380;SDS011;16364;52.490;13.326;2023-11-21T02:55:43;15.70;;;9.17;;
29380;SDS011;16364;52.490;13.326;2023-11-21T02:58:08;17.53;;;8.80;;
29380;SDS011;16364;52.490;13.326;2023-11-21T03:00:33;14.30;;;8.80;;
29380;SDS011;16364;52.490;13.326;2023-11-21T03:02:59;19.13;;;9.33;;
29380;SDS011;16364;52.490;13.326;2023-11-21T03:05:25;17.87;;;9.87;;
29380;SDS011;16364;52.490;13.326;2023-11-21T03:07:50;19.13;;;10.57;;
29380;SDS011;16364;52.490;13.326;2023-11-21T03:10:16;16.50;;;10.53;;
29380;SDS011;16364;52.490;13.326;2023-11-21T03:12:41;19.83;;;10.57;;
29380;SDS011;16364;52.490;13.326;2023-11-21T03:15:06;18.30;;;10.20;;
29380;SDS011;16364;52.490;13.326;2023-11-21T03:17:32;19.60;;;9.77;;
29380;SDS011;16364;52.490;13.326;2023-11-21T03:19:58;15.13;;;10.13;;
29380;SDS011;16364;52.490;13.326;2023-11-21T03:22:24;19.53;;;10.70;;
29380;SDS011;16364;52.490;13.326;2023-11-21T03:24:50;16.47;;;10.90;;
29380;SDS011;16364;52.490;13.326;2023-11-21T03:27:15;15.83;;;10.60;;
29380;SDS011;16364;52.490;13.326;2023-11-21T03:29:40;16.07;;;9.50;;
29380;SDS011;16364;52.490;13.326;2023-11-21T03:32:05;15.60;;;9.50;;
29380;SDS011;16364;52.490;13.326;2023-11-21T03:34:32;15.47;;;10.03;;
29380;SDS011;16364;52.490;13.326;2023-11-21T03:36:57;14.17;;;9.90;;
29380;SDS011;16364;52.490;13.326;2023-11-21T03:39:23;14.50;;;9.67;;
29380;SDS011;16364;52.490;13.326;2023-11-21T03:41:50;13.63;;;9.87;;
29380;SDS011;16364;52.490;13.326;2023-11-21T03:44:16;20.47;;;11.83;;
29380;SDS011;16364;52.490;13.326;2023-11-21T03:46:42;19.03;;;10.87;;
29380;SDS011;16364;52.490;13.326;2023-11-21T03:49:08;16.70;;;10.70;;
29380;SDS011;16364;52.490;13.326;2023-11-21T03:51:33;19.40;;;10.70;;
29380;SDS011;16364;52.490;13.326;2023-11-21T03:53:59;17.20;;;11.43;;
29380;SDS011;16364;52.490;13.326;2023-11-21T03:56:24;15.30;;;10.33;;
29380;SDS011;16364;52.490;13.326;2023-11-21T03:58:49;16.80;;;11.27;;
29380;SDS011;16364;52.490;13.326;2023-11-21T04:01:23;13.10;;;9.50;;
29380;SDS011;16364;52.490;13.326;2023-11-21T04:03:49;13.40;;;9.07;;
29380;SDS011;16364;52.490;13.326;2023-11-21T04:06:15;19.20;;;10.43;;
29380;SDS011;16364;52.490;13.326;2023-11-21T04:08:41;15.20;;;10.63;;
29380;SDS011;16364;52.490;13.326;2023-11-21T04:11:06;14.03;;;9.10;;
29380;SDS011;16364;52.490;13.326;2023-11-21T04:13:32;15.30;;;9.53;;
29380;SDS011;16364;52.490;13.326;2023-11-21T04:15:57;13.77;;;10.50;;
29380;SDS011;16364;52.490;13.326;2023-11-21T04:18:22;13.20;;;9.57;;
29380;SDS011;16364;52.490;13.326;2023-11-21T04:20:50;16.53;;;9.87;;
29380;SDS011;16364;52.490;13.326;2023-11-21T04:23:15;16.40;;;10.90;;
29380;SDS011;16364;52.490;13.326;2023-11-21T04:25:41;14.67;;;8.80;;
29380;SDS011;16364;52.490;13.326;2023-11-21T04:28:06;13.23;;;9.67;;
29380;SDS011;16364;52.490;13.326;2023-11-21T04:30:31;18.97;;;11.20;;
29380;SDS011;16364;52.490;13.326;2023-11-21T04:32:57;20.50;;;10.47;;
29380;SDS011;16364;52.490;13.326;2023-11-21T04:35:23;17.97;;;10.53;;
29380;SDS011;16364;52.490;13.326;2023-11-21T04:37:48;16.50;;;9.67;;
29380;SDS011;16364;52.490;13.326;2023-11-21T04:40:13;16.20;;;9.37;;
29380;SDS011;16364;52.490;13.326;2023-11-21T04:42:39;18.83;;;11.83;;
29380;SDS011;16364;52.490;13.326;2023-11-21T04:45:04;15.83;;;10.13;;
29380;SDS011;16364;52.490;13.326;2023-11-21T04:47:33;12.53;;;8.63;;
29380;SDS011;16364;52.490;13.326;2023-11-21T04:49:58;13.93;;;9.27;;
29380;SDS011;16364;52.490;13.326;2023-11-21T04:52:24;13.30;;;9.27;;
29380;SDS011;16364;52.490;13.326;2023-11-21T04:54:49;13.70;;;10.00;;
29380;SDS011;16364;52.490;13.326;2023-11-21T04:57:14;15.10;;;9.73;;
29380;SDS011;16364;52.490;13.326;2023-11-21T04:59:39;18.93;;;11.27;;
29380;SDS011;16364;52.490;13.326;2023-11-21T05:02:05;17.27;;;10.60;;
29380;SDS011;16364;52.490;13.326;2023-11-21T05:04:30;17.27;;;9.80;;
29380;SDS011;16364;52.490;13.326;2023-11-21T05:06:55;15.40;;;9.70;;
29380;SDS011;16364;52.490;13.326;2023-11-21T05:09:21;13.57;;;8.87;;
29380;SDS011;16364;52.490;13.326;2023-11-21T05:11:47;14.07;;;9.47;;
29380;SDS011;16364;52.490;13.326;2023-11-21T05:14:12;13.03;;;9.73;;
29380;SDS011;16364;52.490;13.326;2023-11-21T05:16:39;17.30;;;11.00;;
29380;SDS011;16364;52.490;13.326;2023-11-21T05:19:04;12.70;;;8.00;;
29380;SDS011;16364;52.490;13.326;2023-11-21T05:21:30;15.23;;;9.47;;
29380;SDS011;16364;52.490;13.326;2023-11-21T05:23:58;16.03;;;9.20;;
29380;SDS011;16364;52.490;13.326;2023-11-21T05:26:23;11.77;;;7.60;;
29380;SDS011;16364;52.490;13.326;2023-11-21T05:28:48;14.73;;;8.87;;
29380;SDS011;16364;52.490;13.326;2023-11-21T05:31:14;13.97;;;8.33;;
29380;SDS011;16364;52.490;13.326;2023-11-21T05:33:39;13.80;;;8.30;;
29380;SDS011;16364;52.490;13.326;2023-11-21T05:36:04;15.60;;;9.27;;
29380;SDS011;16364;52.490;13.326;2023-11-21T05:38:31;12.37;;;8.60;;
29380;SDS011;16364;52.490;13.326;2023-11-21T05:40:57;14.13;;;8.93;;
29380;SDS011;16364;52.490;13.326;2023-11-21T05:43:23;15.17;;;10.33;;
29380;SDS011;16364;52.490;13.326;2023-11-21T05:45:48;13.43;;;8.87;;
29380;SDS011;16364;52.490;13.326;2023-11-21T05:48:14;15.37;;;8.93;;
29380;SDS011;16364;52.490;13.326;2023-11-21T05:50:40;13.80;;;9.17;;
29380;SDS011;16364;52.490;13.326;2023-11-21T05:53:06;17.37;;;9.00;;
29380;SDS011;16364;52.490;13.326;2023-11-21T05:55:32;13.60;;;8.93;;
29380;SDS011;16364;52.490;13.326;2023-11-21T05:57:58;11.70;;;8.20;;
29380;SDS011;16364;52.490;13.326;2023-11-21T06:00:23;14.17;;;9.10;;
29380;SDS011;16364;52.490;13.326;2023-11-21T06:02:50;11.70;;;8.13;;
29380;SDS011;16364;52.490;13.326;2023-11-21T06:05:17;13.30;;;8.87;;
29380;SDS011;16364;52.490;13.326;2023-11-21T06:07:43;13.23;;;7.77;;
29380;SDS011;16364;52.490;13.326;2023-11-21T06:10:10;12.57;;;8.40;;
29380;SDS011;16364;52.490;13.326;2023-11-21T06:12:36;12.97;;;7.83;;
29380;SDS011;16364;52.490;13.326;2023-11-21T06:15:02;11.97;;;7.13;;
29380;SDS011;16364;52.490;13.326;2023-11-21T06:17:29;9.13;;;6.40;;
29380;SDS011;16364;52.490;13.326;2023-11-21T06:19:55;13.07;;;7.93;;
29380;SDS011;16364;52.490;13.326;2023-11-21T06:22:20;10.10;;;6.50;;
29380;SDS011;16364;52.490;13.326;2023-11-21T06:24:45;12.40;;;7.70;;
29380;SDS011;16364;52.490;13.326;2023-11-21T06:27:10;6.63;;;4.80;;
29380;SDS011;16364;52.490;13.326;2023-11-21T06:29:36;8.47;;;6.00;;
29380;SDS011;16364;52.490;13.326;2023-11-21T06:32:02;14.37;;;9.00;;
29380;SDS011;16364;52.490;13.326;2023-11-21T06:34:30;11.40;;;7.17;;
29380;SDS011;16364;52.490;13.326;2023-11-21T06:36:55;12.13;;;7.60;;
29380;SDS011;16364;52.490;13.326;2023-11-21T06:39:21;8.33;;;6.50;;
29380;SDS011;16364;52.490;13.326;2023-11-21T06:41:48;6.93;;;5.80;;
29380;SDS011;16364;52.490;13.326;2023-11-21T06:44:13;8.30;;;5.67;;
29380;SDS011;16364;52.490;13.326;2023-11-21T06:46:38;9.20;;;4.97;;
29380;SDS011;16364;52.490;13.326;2023-11-21T06:49:07;9.50;;;5.70;;
29380;SDS011;16364;52.490;13.326;2023-11-21T06:51:32;5.80;;;4.80;;
29380;SDS011;16364;52.490;13.326;2023-11-21T06:53:57;7.20;;;4.60;;
29380;SDS011;16364;52.490;13.326;2023-11-21T06:56:23;5.60;;;4.73;;
29380;SDS011;16364;52.490;13.326;2023-11-21T06:58:48;7.37;;;5.47;;
29380;SDS011;16364;52.490;13.326;2023-11-21T07:01:14;6.40;;;5.20;;
29380;SDS011;16364;52.490;13.326;2023-11-21T07:03:40;6.50;;;5.10;;
29380;SDS011;16364;52.490;13.326;2023-11-21T07:06:06;9.47;;;5.63;;
29380;SDS011;16364;52.490;13.326;2023-11-21T07:08:32;10.27;;;6.50;;
29380;SDS011;16364;52.490;13.326;2023-11-21T07:10:57;9.33;;;6.70;;
29380;SDS011;16364;52.490;13.326;2023-11-21T07:13:22;8.10;;;6.23;;
29380;SDS011;16364;52.490;13.326;2023-11-21T07:15:48;6.63;;;5.70;;
29380;SDS011;16364;52.490;13.326;2023-11-21T07:18:13;9.27;;;6.20;;
29380;SDS011;16364;52.490;13.326;2023-11-21T07:20:39;8.83;;;5.10;;
29380;SDS011;16364;52.490;13.326;2023-11-21T07:23:04;7.80;;;6.20;;
29380;SDS011;16364;52.490;13.326;2023-11-21T07:25:30;8.90;;;6.20;;
29380;SDS011;16364;52.490;13.326;2023-11-21T07:27:56;8.27;;;6.00;;
29380;SDS011;16364;52.490;13.326;2023-11-21T07:30:22;9.93;;;6.00;;
29380;SDS011;16364;52.490;13.326;2023-11-21T07:32:47;5.90;;;4.90;;
29380;SDS011;16364;52.490;13.326;2023-11-21T07:35:13;10.27;;;6.17;;
29380;SDS011;16364;52.490;13.326;2023-11-21T07:37:38;6.40;;;5.40;;
29380;SDS011;16364;52.490;13.326;2023-11-21T07:40:03;8.37;;;5.43;;
29380;SDS011;16364;52.490;13.326;2023-11-21T07:42:29;5.70;;;4.50;;
29380;SDS011;16364;52.490;13.326;2023-11-21T07:44:54;6.20;;;5.60;;
29380;SDS011;16364;52.490;13.326;2023-11-21T07:47:20;6.00;;;4.97;;
29380;SDS011;16364;52.490;13.326;2023-11-21T07:49:45;7.10;;;4.70;;
29380;SDS011;16364;52.490;13.326;2023-11-21T07:52:11;7.93;;;5.80;;
29380;SDS011;16364;52.490;13.326;2023-11-21T07:54:37;10.90;;;6.37;;
29380;SDS011;16364;52.490;13.326;2023-11-21T07:57:03;6.20;;;4.47;;
29380;SDS011;16364;52.490;13.326;2023-11-21T07:59:29;6.40;;;4.30;;
29380;SDS011;16364;52.490;13.326;2023-11-21T08:01:54;7.60;;;5.30;;
29380;SDS011;16364;52.490;13.326;2023-11-21T08:04:20;5.37;;;4.80;;
29380;SDS011;16364;52.490;13.326;2023-11-21T08:06:45;6.37;;;4.97;;
29380;SDS011;16364;52.490;13.326;2023-11-21T08:09:10;6.90;;;5.03;;
29380;SDS011;16364;52.490;13.326;2023-11-21T08:11:37;5.73;;;4.17;;
29380;SDS011;16364;52.490;13.326;2023-11-21T08:14:04;6.10;;;4.77;;
29380;SDS011;16364;52.490;13.326;2023-11-21T08:16:29;7.73;;;4.80;;
29380;SDS011;16364;52.490;13.326;2023-11-21T08:18:55;7.60;;;5.37;;
29380;SDS011;16364;52.490;13.326;2023-11-21T08:21:20;10.20;;;5.73;;
29380;SDS011;16364;52.490;13.326;2023-11-21T08:23:45;6.40;;;4.50;;
29380;SDS011;16364;52.490;13.326;2023-11-21T08:26:11;5.97;;;5.37;;
29380;SDS011;16364;52.490;13.326;2023-11-21T08:28:36;9.07;;;5.53;;
29380;SDS011;16364;52.490;13.326;2023-11-21T08:31:02;5.60;;;5.10;;
29380;SDS011;16364;52.490;13.326;2023-11-21T08:33:27;4.23;;;3.83;;
29380;SDS011;16364;52.490;13.326;2023-11-21T08:35:52;7.23;;;4.63;;
29380;SDS011;16364;52.490;13.326;2023-11-21T08:38:17;5.67;;;4.53;;
29380;SDS011;16364;52.490;13.326;2023-11-21T08:40:43;5.87;;;4.47;;
29380;SDS011;16364;52.490;13.326;2023-11-21T08:43:08;6.23;;;4.23;;
29380;SDS011;16364;52.490;13.326;2023-11-21T08:45:34;6.03;;;4.70;;
29380;SDS011;16364;52.490;13.326;2023-11-21T08:48:02;6.57;;;4.50;;
29380;SDS011;16364;52.490;13.326;2023-11-21T08:50:27;6.07;;;5.20;;
29380;SDS011;16364;52.490;13.326;2023-11-21T08:52:53;4.73;;;4.00;;
29380;SDS011;16364;52.490;13.326;2023-11-21T08:55:18;7.60;;;3.50;;
29380;SDS011;16364;52.490;13.326;2023-11-21T08:57:45;6.17;;;4.37;;
29380;SDS011;16364;52.490;13.326;2023-11-21T09:00:11;9.07;;;5.37;;
29380;SDS011;16364;52.490;13.326;2023-11-21T09:02:40;5.10;;;3.30;;
29380;SDS011;16364;52.490;13.326;2023-11-21T09:05:11;5.80;;;3.00;;
29380;SDS011;16364;52.490;13.326;2023-11-21T09:07:37;7.30;;;5.10;;
29380;SDS011;16364;52.490;13.326;2023-11-21T09:10:03;9.83;;;4.80;;
29380;SDS011;16364;52.490;13.326;2023-11-21T09:12:28;8.00;;;4.40;;
29380;SDS011;16364;52.490;13.326;2023-11-21T09:14:54;11.30;;;6.80;;
29380;SDS011;16364;52.490;13.326;2023-11-21T09:17:19;9.33;;;4.47;;
29380;SDS011;16364;52.490;13.326;2023-11-21T09:19:44;7.93;;;4.90;;
29380;SDS011;16364;52.490;13.326;2023-11-21T09:22:12;9.83;;;5.13;;
29380;SDS011;16364;52.490;13.326;2023-11-21T09:24:37;9.37;;;4.90;;
29380;SDS011;16364;52.490;13.326;2023-11-21T09:27:02;14.47;;;6.33;;
29380;SDS011;16364;52.490;13.326;2023-11-21T09:29:28;12.33;;;5.20;;
29380;SDS011;16364;52.490;13.326;2023-11-21T09:31:54;6.17;;;3.70;;
29380;SDS011;16364;52.490;13.326;2023-11-21T09:34:20;5.57;;;3.83;;
29380;SDS011;16364;52.490;13.326;2023-11-21T09:36:45;9.73;;;4.47;;
29380;SDS011;16364;52.490;13.326;2023-11-21T09:39:10;6.70;;;4.17;;
29380;SDS011;16364;52.490;13.326;2023-11-21T09:42:10;8.37;;;4.37;;
29380;SDS011;16364;52.490;13.326;2023-11-21T09:44:32;6.80;;;5.43;;
29380;SDS011;16364;52.490;13.326;2023-11-21T09:47:00;9.20;;;4.53;;
29380;SDS011;16364;52.490;13.326;2023-11-21T09:49:26;9.50;;;5.00;;
29380;SDS011;16364;52.490;13.326;2023-11-21T09:51:51;7.27;;;4.43;;
29380;SDS011;16364;52.490;13.326;2023-11-21T09:54:19;9.27;;;4.70;;
29380;SDS011;16364;52.490;13.326;2023-11-21T09:56:46;9.07;;;6.67;;
29380;SDS011;16364;52.490;13.326;2023-11-21T09:59:13;12.73;;;6.33;;
29380;SDS011;16364;52.490;13.326;2023-11-21T10:01:38;12.37;;;6.30;;
29380;SDS011;16364;52.490;13.326;2023-11-21T10:04:04;9.77;;;4.07;;
29380;SDS011;16364;52.490;13.326;2023-11-21T10:06:31;14.40;;;5.77;;
29380;SDS011;16364;52.490;13.326;2023-11-21T10:08:57;10.97;;;4.40;;
29380;SDS011;16364;52.490;13.326;2023-11-21T10:11:24;9.37;;;4.70;;
29380;SDS011;16364;52.490;13.326;2023-11-21T10:13:50;6.67;;;5.53;;
29380;SDS011;16364;52.490;13.326;2023-11-21T10:16:18;13.53;;;5.53;;
29380;SDS011;16364;52.490;13.326;2023-11-21T10:18:46;15.13;;;6.60;;
29380;SDS011;16364;52.490;13.326;2023-11-21T10:21:12;10.77;;;6.17;;
29380;SDS011;16364;52.490;13.326;2023-11-21T10:23:37;9.93;;;6.60;;
29380;SDS011;16364;52.490;13.326;2023-11-21T10:26:03;10.47;;;6.03;;
29380;SDS011;16364;52.490;13.326;2023-11-21T10:28:29;10.77;;;4.73;;
29380;SDS011;16364;52.490;13.326;2023-11-21T10:30:54;12.00;;;6.13;;
29380;SDS011;16364;52.490;13.326;2023-11-21T10:33:26;9.03;;;5.30;;
29380;SDS011;16364;52.490;13.326;2023-11-21T10:35:52;10.27;;;4.93;;
29380;SDS011;16364;52.490;13.326;2023-11-21T10:38:19;10.73;;;5.50;;
29380;SDS011;16364;52.490;13.326;2023-11-21T10:40:47;13.97;;;6.77;;
29380;SDS011;16364;52.490;13.326;2023-11-21T10:43:14;13.60;;;6.57;;
29380;SDS011;16364;52.490;13.326;2023-11-21T10:45:42;10.30;;;5.80;;
29380;SDS011;16364;52.490;13.326;2023-11-21T10:48:09;8.47;;;5.10;;
29380;SDS011;16364;52.490;13.326;2023-11-21T10:50:36;11.73;;;5.20;;
29380;SDS011;16364;52.490;13.326;2023-11-21T10:53:02;13.43;;;5.90;;
29380;SDS011;16364;52.490;13.326;2023-11-21T10:55:28;8.33;;;5.23;;
29380;SDS011;16364;52.490;13.326;2023-11-21T10:57:54;7.87;;;4.87;;
29380;SDS011;16364;52.490;13.326;2023-11-21T11:00:19;6.43;;;4.23;;
29380;SDS011;16364;52.490;13.326;2023-11-21T11:02:46;7.00;;;3.97;;
29380;SDS011;16364;52.490;13.326;2023-11-21T11:05:12;5.03;;;3.90;;
29380;SDS011;16364;52.490;13.326;2023-11-21T11:07:38;4.87;;;3.80;;
29380;SDS011;16364;52.490;13.326;2023-11-21T11:10:06;3.90;;;3.50;;
29380;SDS011;16364;52.490;13.326;2023-11-21T11:12:33;4.53;;;3.27;;
29380;SDS011;16364;52.490;13.326;2023-11-21T11:14:59;3.90;;;3.03;;
29380;SDS011;16364;52.490;13.326;2023-11-21T11:17:25;4.70;;;3.03;;
29380;SDS011;16364;52.490;13.326;2023-11-21T11:19:51;3.70;;;2.77;;
29380;SDS011;16364;52.490;13.326;2023-11-21T11:30:06;2.50;;;2.30;;
29380;SDS011;16364;52.490;13.326;2023-11-21T11:35:07;5.20;;;3.10;;
29380;SDS011;16364;52.490;13.326;2023-11-21T11:37:36;6.13;;;3.10;;
29380;SDS011;16364;52.490;13.326;2023-11-21T11:40:05;4.50;;;3.40;;
29380;SDS011;16364;52.490;13.326;2023-11-21T11:42:31;5.53;;;4.13;;
29380;SDS011;16364;52.490;13.326;2023-11-21T11:44:57;3.33;;;3.03;;
29380;SDS011;16364;52.490;13.326;2023-11-21T11:47:27;5.17;;;3.30;;
29380;SDS011;16364;52.490;13.326;2023-11-21T11:49:59;7.40;;;5.17;;
29380;SDS011;16364;52.490;13.326;2023-11-21T11:52:31;3.97;;;3.30;;
29380;SDS011;16364;52.490;13.326;2023-11-21T11:54:57;6.23;;;3.03;;
29380;SDS011;16364;52.490;13.326;2023-11-21T11:57:26;2.70;;;2.33;;
29380;SDS011;16364;52.490;13.326;2023-11-21T12:02:41;2.57;;;2.37;;
29380;SDS011;16364;52.490;13.326;2023-11-21T12:05:08;4.53;;;2.60;;
29380;SDS011;16364;52.490;13.326;2023-11-21T12:10:13;3.00;;;2.70;;
29380;SDS011;16364;52.490;13.326;2023-11-21T12:12:42;2.13;;;1.93;;
29380;SDS011;16364;52.490;13.326;2023-11-21T12:15:07;3.80;;;2.97;;
29380;SDS011;16364;52.490;13.326;2023-11-21T12:17:32;3.53;;;2.90;;
29380;SDS011;16364;52.490;13.326;2023-11-21T12:20:02;3.10;;;2.50;;
29380;SDS011;16364;52.490;13.326;2023-11-21T12:22:29;3.57;;;2.40;;
29380;SDS011;16364;52.490;13.326;2023-11-21T12:24:54;3.73;;;2.67;;
29380;SDS011;16364;52.490;13.326;2023-11-21T12:27:20;4.00;;;3.60;;
29380;SDS011;16364;52.490;13.326;2023-11-21T12:29:45;4.20;;;2.90;;
29380;SDS011;16364;52.490;13.326;2023-11-21T12:32:11;4.67;;;2.97;;
29380;SDS011;16364;52.490;13.326;2023-11-21T12:34:36;2.73;;;2.53;;
29380;SDS011;16364;52.490;13.326;2023-11-21T12:37:03;3.37;;;2.57;;
29380;SDS011;16364;52.490;13.326;2023-11-21T12:39:29;28.20;;;16.70;;
29380;SDS011;16364;52.490;13.326;2023-11-21T12:41:54;56.83;;;28.40;;
29380;SDS011;16364;52.490;13.326;2023-11-21T12:44:19;62.37;;;28.70;;
29380;SDS011;16364;52.490;13.326;2023-11-21T12:46:45;12.27;;;6.90;;
29380;SDS011;16364;52.490;13.326;2023-11-21T12:49:11;58.03;;;24.57;;
29380;SDS011;16364;52.490;13.326;2023-11-21T12:51:42;20.33;;;10.90;;
29380;SDS011;16364;52.490;13.326;2023-11-21T12:54:07;4.93;;;3.73;;
29380;SDS011;16364;52.490;13.326;2023-11-21T12:56:38;2.80;;;2.60;;
29380;SDS011;16364;52.490;13.326;2023-11-21T12:59:03;3.10;;;2.83;;
29380;SDS011;16364;52.490;13.326;2023-11-21T13:01:29;3.20;;;2.90;;
29380;SDS011;16364;52.490;13.326;2023-11-21T13:03:57;3.23;;;2.50;;
29380;SDS011;16364;52.490;13.326;2023-11-21T13:06:22;5.80;;;3.90;;
29380;SDS011;16364;52.490;13.326;2023-11-21T13:08:50;18.67;;;10.27;;
29380;SDS011;16364;52.490;13.326;2023-11-21T13:11:15;41.77;;;21.10;;
29380;SDS011;16364;52.490;13.326;2023-11-21T13:13:43;5.20;;;4.17;;
29380;SDS011;16364;52.490;13.326;2023-11-21T13:16:11;4.43;;;3.80;;
29380;SDS011;16364;52.490;13.326;2023-11-21T13:18:36;6.60;;;5.00;;
29380;SDS011;16364;52.490;13.326;2023-11-21T13:21:07;6.67;;;4.23;;
29380;SDS011;16364;52.490;13.326;2023-11-21T13:23:38;5.33;;;4.13;;
29380;SDS011;16364;52.490;13.326;2023-11-21T13:26:04;6.17;;;3.53;;
29380;SDS011;16364;52.490;13.326;2023-11-21T13:28:29;4.13;;;3.73;;
29380;SDS011;16364;52.490;13.326;2023-11-21T13:30:58;7.20;;;4.77;;
29380;SDS011;16364;52.490;13.326;2023-11-21T13:33:28;9.23;;;5.30;;
29380;SDS011;16364;52.490;13.326;2023-11-21T13:35:53;6.13;;;4.43;;
29380;SDS011;16364;52.490;13.326;2023-11-21T13:38:21;4.93;;;4.40;;
29380;SDS011;16364;52.490;13.326;2023-11-21T13:40:54;9.17;;;6.20;;
29380;SDS011;16364;52.490;13.326;2023-11-21T13:43:20;5.80;;;4.33;;
29380;SDS011;16364;52.490;13.326;2023-11-21T13:45:47;8.20;;;5.70;;
29380;SDS011;16364;52.490;13.326;2023-11-21T13:48:14;8.30;;;5.57;;
29380;SDS011;16364;52.490;13.326;2023-11-21T13:50:40;10.40;;;5.37;;
29380;SDS011;16364;52.490;13.326;2023-11-21T13:53:13;10.30;;;5.80;;
29380;SDS011;16364;52.490;13.326;2023-11-21T13:55:47;11.93;;;7.93;;
29380;SDS011;16364;52.490;13.326;2023-11-21T13:58:14;11.20;;;7.00;;
29380;SDS011;16364;52.490;13.326;2023-11-21T14:00:44;8.73;;;5.20;;
29380;SDS011;16364;52.490;13.326;2023-11-21T14:03:11;11.47;;;6.73;;
29380;SDS011;16364;52.490;13.326;2023-11-21T14:05:47;13.40;;;6.80;;
29380;SDS011;16364;52.490;13.326;2023-11-21T14:08:22;12.77;;;7.60;;
29380;SDS011;16364;52.490;13.326;2023-11-21T14:10:53;12.17;;;7.43;;
29380;SDS011;16364;52.490;13.326;2023-11-21T14:13:22;18.03;;;7.97;;
29380;SDS011;16364;52.490;13.326;2023-11-21T14:15:48;15.37;;;8.60;;
29380;SDS011;16364;52.490;13.326;2023-11-21T14:18:16;21.47;;;10.37;;
29380;SDS011;16364;52.490;13.326;2023-11-21T14:20:42;17.03;;;9.60;;
29380;SDS011;16364;52.490;13.326;2023-11-21T14:23:07;17.67;;;10.07;;
29380;SDS011;16364;52.490;13.326;2023-11-21T14:25:36;30.63;;;14.10;;
29380;SDS011;16364;52.490;13.326;2023-11-21T14:28:02;18.13;;;10.70;;
29380;SDS011;16364;52.490;13.326;2023-11-21T14:30:28;18.13;;;10.43;;
29380;SDS011;16364;52.490;13.326;2023-11-21T14:32:57;14.87;;;9.27;;